California Hot Springs, California
Current Conditions -  °F | °C
As of 9:55 PM on Tuesday 21 Oct 2014 (Local Time) from KPTV Reporting Station
Broken Clouds Broken Clouds  
Wind Chill: 59°   Ceiling: 5500
Heat Index: 59°   Visibility: 10mi
Dew Point: 46°   Wind: 5mph
Humidity: 63%   Direction: 180°S
Pressure: 30.03"   Gusts: NA
Location:  35.88°N, 118.67°W
Report Text: KPTV 220455Z 18004KT 10SM FEW021 BKN055 15/08 A3003 RMK AO1
Loading
Personal Weather Stations






























Interactive Weather Map
Tropical Storm Tracking
New forecast layout! Learn more

10-Day Weather Forecast

Advertisements
Track Severe Weather on mobile